sensor_id;sensor_type;location;lat;lon;timestamp;pressure;altitude;pressure_sealevel;temperature;humidity
39739;BME280;25422;48.286;8.484;2023-04-29T00:00:33;93887.28;;;10.17;100.00
39739;BME280;25422;48.286;8.484;2023-04-29T00:02:58;93894.03;;;10.11;100.00
39739;BME280;25422;48.286;8.484;2023-04-29T00:05:25;93898.63;;;10.09;100.00
39739;BME280;25422;48.286;8.484;2023-04-29T00:07:51;93896.34;;;10.06;100.00
39739;BME280;25422;48.286;8.484;2023-04-29T00:10:17;93890.69;;;10.03;100.00
39739;BME280;25422;48.286;8.484;2023-04-29T00:12:42;93893.19;;;10.19;100.00
39739;BME280;25422;48.286;8.484;2023-04-29T00:15:08;93892.28;;;10.35;100.00
39739;BME280;25422;48.286;8.484;2023-04-29T00:17:33;93894.47;;;10.46;100.00
39739;BME280;25422;48.286;8.484;2023-04-29T00:19:59;93893.06;;;10.59;100.00
39739;BME280;25422;48.286;8.484;2023-04-29T00:22:24;93889.47;;;10.60;100.00
39739;BME280;25422;48.286;8.484;2023-04-29T00:24:50;93892.69;;;10.62;100.00
39739;BME280;25422;48.286;8.484;2023-04-29T00:27:15;93897.59;;;10.65;100.00
39739;BME280;25422;48.286;8.484;2023-04-29T00:29:42;93898.03;;;10.69;100.00
39739;BME280;25422;48.286;8.484;2023-04-29T00:32:07;93893.97;;;10.66;100.00
39739;BME280;25422;48.286;8.484;2023-04-29T00:34:32;93899.84;;;10.68;100.00
39739;BME280;25422;48.286;8.484;2023-04-29T00:36:58;93895.00;;;10.65;100.00
39739;BME280;25422;48.286;8.484;2023-04-29T00:39:23;93890.56;;;10.66;100.00
39739;BME280;25422;48.286;8.484;2023-04-29T00:41:48;93895.59;;;10.67;100.00
39739;BME280;25422;48.286;8.484;2023-04-29T00:44:14;93890.09;;;10.62;100.00
39739;BME280;25422;48.286;8.484;2023-04-29T00:46:39;93893.91;;;10.59;100.00
39739;BME280;25422;48.286;8.484;2023-04-29T00:49:05;93892.44;;;10.57;100.00
39739;BME280;25422;48.286;8.484;2023-04-29T00:51:32;93896.66;;;10.58;100.00
39739;BME280;25422;48.286;8.484;2023-04-29T00:53:58;93891.78;;;10.55;100.00
39739;BME280;25422;48.286;8.484;2023-04-29T00:56:23;93896.22;;;10.54;100.00
39739;BME280;25422;48.286;8.484;2023-04-29T00:58:49;93890.81;;;10.56;100.00
39739;BME280;25422;48.286;8.484;2023-04-29T01:01:15;93897.38;;;10.52;100.00
39739;BME280;25422;48.286;8.484;2023-04-29T01:03:41;93890.34;;;10.52;100.00
39739;BME280;25422;48.286;8.484;2023-04-29T01:08:37;93881.81;;;10.35;100.00
39739;BME280;25422;48.286;8.484;2023-04-29T01:11:10;93885.38;;;10.34;100.00
39739;BME280;25422;48.286;8.484;2023-04-29T01:13:41;93877.25;;;10.29;100.00
39739;BME280;25422;48.286;8.484;2023-04-29T01:16:10;93886.06;;;10.28;100.00
39739;BME280;25422;48.286;8.484;2023-04-29T01:18:44;93884.00;;;10.23;100.00
39739;BME280;25422;48.286;8.484;2023-04-29T01:21:14;93882.72;;;10.19;100.00
39739;BME280;25422;48.286;8.484;2023-04-29T01:23:40;93877.38;;;10.12;100.00
39739;BME280;25422;48.286;8.484;2023-04-29T01:26:05;93888.50;;;10.06;100.00
39739;BME280;25422;48.286;8.484;2023-04-29T01:28:55;93880.66;;;10.06;100.00
39739;BME280;25422;48.286;8.484;2023-04-29T01:31:40;93882.41;;;9.91;100.00
39739;BME280;25422;48.286;8.484;2023-04-29T01:34:07;93881.19;;;9.78;100.00
39739;BME280;25422;48.286;8.484;2023-04-29T01:39:06;93874.13;;;9.48;100.00
39739;BME280;25422;48.286;8.484;2023-04-29T01:41:34;93873.69;;;9.36;100.00
39739;BME280;25422;48.286;8.484;2023-04-29T01:44:20;93880.13;;;9.17;100.00
39739;BME280;25422;48.286;8.484;2023-04-29T01:46:49;93883.09;;;9.05;100.00
39739;BME280;25422;48.286;8.484;2023-04-29T01:49:35;93879.03;;;9.03;100.00
39739;BME280;25422;48.286;8.484;2023-04-29T01:52:01;93874.94;;;9.00;100.00
39739;BME280;25422;48.286;8.484;2023-04-29T01:54:28;93876.75;;;9.00;100.00
39739;BME280;25422;48.286;8.484;2023-04-29T01:56:54;93879.84;;;8.95;100.00
39739;BME280;25422;48.286;8.484;2023-04-29T01:59:25;93879.81;;;9.03;100.00
39739;BME280;25422;48.286;8.484;2023-04-29T02:02:01;93876.22;;;9.13;100.00
39739;BME280;25422;48.286;8.484;2023-04-29T02:04:27;93875.91;;;9.16;100.00
39739;BME280;25422;48.286;8.484;2023-04-29T02:06:53;93874.44;;;9.13;100.00
39739;BME280;25422;48.286;8.484;2023-04-29T02:09:18;93870.19;;;9.12;100.00
39739;BME280;25422;48.286;8.484;2023-04-29T02:11:49;93873.94;;;9.18;100.00
39739;BME280;25422;48.286;8.484;2023-04-29T02:14:14;93875.06;;;9.15;100.00
39739;BME280;25422;48.286;8.484;2023-04-29T02:16:44;93875.72;;;9.17;100.00
39739;BME280;25422;48.286;8.484;2023-04-29T02:19:10;93874.59;;;9.20;100.00
39739;BME280;25422;48.286;8.484;2023-04-29T02:21:37;93869.19;;;9.21;100.00
39739;BME280;25422;48.286;8.484;2023-04-29T02:24:04;93878.97;;;9.19;100.00
39739;BME280;25422;48.286;8.484;2023-04-29T02:26:30;93884.38;;;9.18;100.00
39739;BME280;25422;48.286;8.484;2023-04-29T02:28:55;93876.69;;;9.24;100.00
39739;BME280;25422;48.286;8.484;2023-04-29T02:31:21;93875.72;;;9.17;100.00
39739;BME280;25422;48.286;8.484;2023-04-29T02:33:47;93879.66;;;9.13;100.00
39739;BME280;25422;48.286;8.484;2023-04-29T02:36:12;93887.97;;;9.08;100.00
39739;BME280;25422;48.286;8.484;2023-04-29T02:38:38;93879.97;;;9.10;100.00
39739;BME280;25422;48.286;8.484;2023-04-29T02:41:03;93880.16;;;9.08;100.00
39739;BME280;25422;48.286;8.484;2023-04-29T02:43:28;93873.94;;;9.18;100.00
39739;BME280;25422;48.286;8.484;2023-04-29T02:45:56;93890.56;;;9.17;100.00
39739;BME280;25422;48.286;8.484;2023-04-29T02:48:22;93883.22;;;9.20;100.00
39739;BME280;25422;48.286;8.484;2023-04-29T02:50:47;93888.94;;;9.24;100.00
39739;BME280;25422;48.286;8.484;2023-04-29T02:53:13;93883.22;;;9.20;100.00
39739;BME280;25422;48.286;8.484;2023-04-29T02:55:38;93886.47;;;9.22;100.00
39739;BME280;25422;48.286;8.484;2023-04-29T02:58:08;93883.38;;;9.19;100.00
39739;BME280;25422;48.286;8.484;2023-04-29T03:00:34;93883.00;;;9.30;100.00
39739;BME280;25422;48.286;8.484;2023-04-29T03:02:59;93871.88;;;9.44;100.00
39739;BME280;25422;48.286;8.484;2023-04-29T03:05:25;93869.88;;;9.47;100.00
39739;BME280;25422;48.286;8.484;2023-04-29T03:07:51;93870.25;;;9.43;100.00
39739;BME280;25422;48.286;8.484;2023-04-29T03:10:16;93876.59;;;9.41;100.00
39739;BME280;25422;48.286;8.484;2023-04-29T03:12:43;93871.78;;;9.61;100.00
39739;BME280;25422;48.286;8.484;2023-04-29T03:15:08;93868.81;;;9.64;100.00
39739;BME280;25422;48.286;8.484;2023-04-29T03:17:35;93868.50;;;9.67;100.00
39739;BME280;25422;48.286;8.484;2023-04-29T03:20:01;93866.00;;;9.74;100.00
39739;BME280;25422;48.286;8.484;2023-04-29T03:22:26;93865.81;;;9.84;100.00
39739;BME280;25422;48.286;8.484;2023-04-29T03:24:51;93866.59;;;9.84;100.00
39739;BME280;25422;48.286;8.484;2023-04-29T03:27:18;93860.91;;;9.81;100.00
39739;BME280;25422;48.286;8.484;2023-04-29T03:29:44;93856.50;;;9.81;100.00
39739;BME280;25422;48.286;8.484;2023-04-29T03:32:09;93854.56;;;9.75;100.00
39739;BME280;25422;48.286;8.484;2023-04-29T03:34:35;93860.38;;;9.62;100.00
39739;BME280;25422;48.286;8.484;2023-04-29T03:37:15;93847.63;;;9.59;100.00
39739;BME280;25422;48.286;8.484;2023-04-29T03:39:44;93853.19;;;9.56;100.00
39739;BME280;25422;48.286;8.484;2023-04-29T03:42:11;93854.06;;;9.48;100.00
39739;BME280;25422;48.286;8.484;2023-04-29T03:44:37;93854.56;;;9.43;100.00
39739;BME280;25422;48.286;8.484;2023-04-29T03:47:02;93857.88;;;9.37;100.00
39739;BME280;25422;48.286;8.484;2023-04-29T03:49:28;93849.53;;;9.42;100.00
39739;BME280;25422;48.286;8.484;2023-04-29T03:51:53;93858.47;;;9.48;100.00
39739;BME280;25422;48.286;8.484;2023-04-29T03:54:18;93849.19;;;9.45;100.00
39739;BME280;25422;48.286;8.484;2023-04-29T03:56:44;93853.47;;;9.38;100.00
39739;BME280;25422;48.286;8.484;2023-04-29T03:59:11;93863.09;;;9.29;100.00
39739;BME280;25422;48.286;8.484;2023-04-29T04:01:37;93858.22;;;9.26;100.00
39739;BME280;25422;48.286;8.484;2023-04-29T04:04:02;93860.69;;;9.19;100.00
39739;BME280;25422;48.286;8.484;2023-04-29T04:06:29;93854.78;;;9.34;100.00
39739;BME280;25422;48.286;8.484;2023-04-29T04:08:56;93857.75;;;9.31;100.00
39739;BME280;25422;48.286;8.484;2023-04-29T04:11:26;93854.91;;;9.40;100.00
39739;BME280;25422;48.286;8.484;2023-04-29T04:13:56;93860.09;;;9.49;100.00
39739;BME280;25422;48.286;8.484;2023-04-29T04:16:22;93864.66;;;9.47;100.00
39739;BME280;25422;48.286;8.484;2023-04-29T04:18:48;93872.31;;;9.48;100.00
39739;BME280;25422;48.286;8.484;2023-04-29T04:21:13;93870.53;;;9.49;100.00
39739;BME280;25422;48.286;8.484;2023-04-29T04:23:43;93870.91;;;9.45;100.00
39739;BME280;25422;48.286;8.484;2023-04-29T04:26:11;93883.66;;;9.40;100.00
39739;BME280;25422;48.286;8.484;2023-04-29T04:28:55;93874.44;;;9.53;100.00
39739;BME280;25422;48.286;8.484;2023-04-29T04:31:46;93878.69;;;9.54;100.00
39739;BME280;25422;48.286;8.484;2023-04-29T04:34:12;93891.22;;;9.58;100.00
39739;BME280;25422;48.286;8.484;2023-04-29T04:36:37;93893.34;;;9.55;100.00
39739;BME280;25422;48.286;8.484;2023-04-29T04:39:24;93892.88;;;9.59;100.00
39739;BME280;25422;48.286;8.484;2023-04-29T04:41:51;93900.16;;;9.64;100.00
39739;BME280;25422;48.286;8.484;2023-04-29T04:44:17;93898.66;;;9.70;100.00
39739;BME280;25422;48.286;8.484;2023-04-29T04:48:29;93896.69;;;10.03;100.00
39739;BME280;25422;48.286;8.484;2023-04-29T04:50:56;93901.31;;;10.01;100.00
39739;BME280;25422;48.286;8.484;2023-04-29T04:53:22;93896.94;;;9.93;100.00
39739;BME280;25422;48.286;8.484;2023-04-29T04:55:53;93897.16;;;9.84;100.00
39739;BME280;25422;48.286;8.484;2023-04-29T04:58:19;93900.91;;;9.81;100.00
39739;BME280;25422;48.286;8.484;2023-04-29T05:00:45;93906.16;;;9.81;100.00
39739;BME280;25422;48.286;8.484;2023-04-29T05:03:10;93898.66;;;9.78;100.00
39739;BME280;25422;48.286;8.484;2023-04-29T05:05:36;93902.88;;;9.79;100.00
39739;BME280;25422;48.286;8.484;2023-04-29T05:08:02;93907.06;;;9.88;100.00
39739;BME280;25422;48.286;8.484;2023-04-29T05:10:35;93910.47;;;9.97;100.00
39739;BME280;25422;48.286;8.484;2023-04-29T05:13:01;93907.22;;;9.95;100.00
39739;BME280;25422;48.286;8.484;2023-04-29T05:15:26;93914.22;;;10.26;100.00
39739;BME280;25422;48.286;8.484;2023-04-29T05:17:54;93911.38;;;10.36;100.00
39739;BME280;25422;48.286;8.484;2023-04-29T05:20:20;93911.13;;;10.22;100.00
39739;BME280;25422;48.286;8.484;2023-04-29T05:22:46;93913.03;;;10.05;100.00
39739;BME280;25422;48.286;8.484;2023-04-29T05:25:12;93911.25;;;10.52;100.00
39739;BME280;25422;48.286;8.484;2023-04-29T05:27:38;93900.19;;;11.63;100.00
39739;BME280;25422;48.286;8.484;2023-04-29T05:30:08;93895.03;;;12.21;100.00
39739;BME280;25422;48.286;8.484;2023-04-29T05:32:33;93894.44;;;12.69;100.00
39739;BME280;25422;48.286;8.484;2023-04-29T05:34:59;93892.09;;;12.31;100.00
39739;BME280;25422;48.286;8.484;2023-04-29T05:37:24;93896.03;;;11.69;100.00
39739;BME280;25422;48.286;8.484;2023-04-29T05:40:21;93899.06;;;11.87;100.00
39739;BME280;25422;48.286;8.484;2023-04-29T05:42:47;93901.59;;;12.54;100.00
39739;BME280;25422;48.286;8.484;2023-04-29T05:45:13;93900.91;;;12.95;100.00
39739;BME280;25422;48.286;8.484;2023-04-29T05:47:39;93908.41;;;12.98;100.00
39739;BME280;25422;48.286;8.484;2023-04-29T05:50:05;93922.31;;;13.20;100.00
39739;BME280;25422;48.286;8.484;2023-04-29T05:52:30;93912.69;;;13.34;100.00
39739;BME280;25422;48.286;8.484;2023-04-29T05:54:56;93923.88;;;13.85;100.00
39739;BME280;25422;48.286;8.484;2023-04-29T05:57:22;93923.09;;;14.59;100.00
39739;BME280;25422;48.286;8.484;2023-04-29T05:59:47;93923.38;;;14.03;100.00
39739;BME280;25422;48.286;8.484;2023-04-29T06:02:13;93922.34;;;14.04;100.00
39739;BME280;25422;48.286;8.484;2023-04-29T06:04:39;93931.53;;;13.09;100.00
39739;BME280;25422;48.286;8.484;2023-04-29T06:07:08;93934.81;;;12.68;100.00
39739;BME280;25422;48.286;8.484;2023-04-29T06:09:47;93935.84;;;12.09;100.00
39739;BME280;25422;48.286;8.484;2023-04-29T06:12:12;93933.81;;;12.47;100.00
39739;BME280;25422;48.286;8.484;2023-04-29T06:14:40;93936.22;;;12.92;100.00
39739;BME280;25422;48.286;8.484;2023-04-29T06:17:05;93939.34;;;13.59;100.00
39739;BME280;25422;48.286;8.484;2023-04-29T06:19:31;93949.34;;;14.19;100.00
39739;BME280;25422;48.286;8.484;2023-04-29T06:21:58;93948.59;;;14.45;100.00
39739;BME280;25422;48.286;8.484;2023-04-29T06:24:24;93954.59;;;13.42;100.00
39739;BME280;25422;48.286;8.484;2023-04-29T06:26:49;93952.25;;;12.76;100.00
39739;BME280;25422;48.286;8.484;2023-04-29T06:29:15;93954.34;;;12.22;100.00
39739;BME280;25422;48.286;8.484;2023-04-29T06:31:42;93961.16;;;11.72;100.00
39739;BME280;25422;48.286;8.484;2023-04-29T06:34:07;93966.88;;;11.45;100.00
39739;BME280;25422;48.286;8.484;2023-04-29T06:36:38;93980.22;;;11.21;100.00
39739;BME280;25422;48.286;8.484;2023-04-29T06:39:22;93977.44;;;10.99;100.00
39739;BME280;25422;48.286;8.484;2023-04-29T06:42:13;93962.75;;;10.75;100.00
39739;BME280;25422;48.286;8.484;2023-04-29T06:44:51;93977.00;;;10.72;100.00
39739;BME280;25422;48.286;8.484;2023-04-29T06:47:37;93985.03;;;10.48;100.00
39739;BME280;25422;48.286;8.484;2023-04-29T06:50:09;93981.56;;;10.55;100.00
39739;BME280;25422;48.286;8.484;2023-04-29T06:52:35;93980.16;;;10.44;100.00
39739;BME280;25422;48.286;8.484;2023-04-29T06:55:02;93986.88;;;10.39;100.00
39739;BME280;25422;48.286;8.484;2023-04-29T06:57:27;93988.16;;;10.43;100.00
39739;BME280;25422;48.286;8.484;2023-04-29T06:59:53;93988.19;;;10.35;100.00
39739;BME280;25422;48.286;8.484;2023-04-29T07:02:18;93983.09;;;10.10;100.00
39739;BME280;25422;48.286;8.484;2023-04-29T07:04:45;93988.09;;;10.20;100.00
39739;BME280;25422;48.286;8.484;2023-04-29T07:07:14;93982.66;;;10.29;100.00
39739;BME280;25422;48.286;8.484;2023-04-29T07:09:39;93992.94;;;10.31;100.00
39739;BME280;25422;48.286;8.484;2023-04-29T07:12:05;93992.09;;;10.39;100.00
39739;BME280;25422;48.286;8.484;2023-04-29T07:14:30;94004.94;;;10.17;100.00
39739;BME280;25422;48.286;8.484;2023-04-29T07:16:56;93998.50;;;10.36;100.00
39739;BME280;25422;48.286;8.484;2023-04-29T07:19:22;94000.44;;;10.42;100.00
39739;BME280;25422;48.286;8.484;2023-04-29T07:21:47;94008.41;;;10.49;100.00
39739;BME280;25422;48.286;8.484;2023-04-29T07:24:13;94009.91;;;10.67;100.00
39739;BME280;25422;48.286;8.484;2023-04-29T07:26:38;94011.69;;;10.43;100.00
39739;BME280;25422;48.286;8.484;2023-04-29T07:29:05;94013.38;;;10.36;100.00
39739;BME280;25422;48.286;8.484;2023-04-29T07:31:31;94019.09;;;10.31;100.00
39739;BME280;25422;48.286;8.484;2023-04-29T07:33:56;94025.91;;;10.40;100.00
39739;BME280;25422;48.286;8.484;2023-04-29T07:36:22;94023.75;;;10.12;100.00
39739;BME280;25422;48.286;8.484;2023-04-29T07:38:47;94031.59;;;10.12;100.00
39739;BME280;25422;48.286;8.484;2023-04-29T07:41:13;94036.31;;;10.17;100.00
39739;BME280;25422;48.286;8.484;2023-04-29T07:43:38;94026.75;;;10.01;100.00
39739;BME280;25422;48.286;8.484;2023-04-29T07:46:04;94024.81;;;9.95;100.00
39739;BME280;25422;48.286;8.484;2023-04-29T07:48:30;94030.94;;;10.10;100.00
39739;BME280;25422;48.286;8.484;2023-04-29T07:50:55;94038.16;;;10.08;100.00
39739;BME280;25422;48.286;8.484;2023-04-29T07:53:21;94029.75;;;10.21;100.00
39739;BME280;25422;48.286;8.484;2023-04-29T07:55:49;94029.53;;;10.39;100.00
39739;BME280;25422;48.286;8.484;2023-04-29T07:58:15;94029.31;;;10.49;100.00
39739;BME280;25422;48.286;8.484;2023-04-29T08:00:41;94037.84;;;10.74;100.00
39739;BME280;25422;48.286;8.484;2023-04-29T08:03:06;94037.47;;;10.77;100.00
39739;BME280;25422;48.286;8.484;2023-04-29T08:05:31;94029.69;;;10.69;100.00
39739;BME280;25422;48.286;8.484;2023-04-29T08:07:57;94036.31;;;10.57;100.00
39739;BME280;25422;48.286;8.484;2023-04-29T08:10:24;94044.22;;;10.40;100.00
39739;BME280;25422;48.286;8.484;2023-04-29T08:12:50;94036.84;;;10.44;100.00
39739;BME280;25422;48.286;8.484;2023-04-29T08:15:15;94041.50;;;10.65;100.00
39739;BME280;25422;48.286;8.484;2023-04-29T08:17:42;94045.56;;;10.68;100.00
39739;BME280;25422;48.286;8.484;2023-04-29T08:20:09;94062.84;;;10.45;100.00
39739;BME280;25422;48.286;8.484;2023-04-29T08:22:34;94058.91;;;10.50;100.00
39739;BME280;25422;48.286;8.484;2023-04-29T08:25:00;94053.88;;;10.71;100.00
39739;BME280;25422;48.286;8.484;2023-04-29T08:27:27;94056.03;;;10.91;100.00
39739;BME280;25422;48.286;8.484;2023-04-29T08:29:53;94055.28;;;10.82;100.00
39739;BME280;25422;48.286;8.484;2023-04-29T08:32:18;94058.19;;;11.10;100.00
39739;BME280;25422;48.286;8.484;2023-04-29T08:34:44;94059.31;;;11.31;100.00
39739;BME280;25422;48.286;8.484;2023-04-29T08:37:10;94059.53;;;11.44;100.00
39739;BME280;25422;48.286;8.484;2023-04-29T08:39:35;94056.59;;;11.62;100.00
39739;BME280;25422;48.286;8.484;2023-04-29T08:42:08;94059.84;;;11.79;100.00
39739;BME280;25422;48.286;8.484;2023-04-29T08:44:34;94065.94;;;11.95;100.00
39739;BME280;25422;48.286;8.484;2023-04-29T08:47:01;94057.91;;;12.11;100.00
39739;BME280;25422;48.286;8.484;2023-04-29T08:49:28;94052.88;;;11.57;100.00
39739;BME280;25422;48.286;8.484;2023-04-29T08:51:54;94060.03;;;11.78;100.00
39739;BME280;25422;48.286;8.484;2023-04-29T08:54:19;94054.00;;;11.77;100.00
39739;BME280;25422;48.286;8.484;2023-04-29T08:56:45;94056.91;;;11.97;100.00
39739;BME280;25422;48.286;8.484;2023-04-29T08:59:14;94055.25;;;11.67;100.00
39739;BME280;25422;48.286;8.484;2023-04-29T09:01:41;94054.69;;;11.71;100.00
39739;BME280;25422;48.286;8.484;2023-04-29T09:04:30;94056.78;;;11.76;100.00
39739;BME280;25422;48.286;8.484;2023-04-29T09:07:02;94054.53;;;11.88;100.00
39739;BME280;25422;48.286;8.484;2023-04-29T09:09:28;94054.06;;;11.84;100.00
39739;BME280;25422;48.286;8.484;2023-04-29T09:11:54;94054.72;;;12.31;100.00
39739;BME280;25422;48.286;8.484;2023-04-29T09:14:21;94053.59;;;12.92;100.00
39739;BME280;25422;48.286;8.484;2023-04-29T09:16:47;94053.72;;;13.05;100.00
39739;BME280;25422;48.286;8.484;2023-04-29T09:19:33;94053.78;;;13.12;100.00
39739;BME280;25422;48.286;8.484;2023-04-29T09:21:59;94053.44;;;12.78;100.00
39739;BME280;25422;48.286;8.484;2023-04-29T09:24:26;94058.03;;;12.40;100.00
39739;BME280;25422;48.286;8.484;2023-04-29T09:26:52;94063.38;;;12.46;100.00
39739;BME280;25422;48.286;8.484;2023-04-29T09:29:18;94062.13;;;12.42;100.00
39739;BME280;25422;48.286;8.484;2023-04-29T09:31:44;94058.50;;;12.43;100.00
39739;BME280;25422;48.286;8.484;2023-04-29T09:34:10;94063.00;;;12.64;100.00
39739;BME280;25422;48.286;8.484;2023-04-29T09:36:47;94061.69;;;12.39;100.00
39739;BME280;25422;48.286;8.484;2023-04-29T09:39:18;94061.47;;;12.55;100.00
39739;BME280;25422;48.286;8.484;2023-04-29T09:44:40;94061.66;;;13.55;100.00
39739;BME280;25422;48.286;8.484;2023-04-29T09:47:08;94070.72;;;14.16;100.00
39739;BME280;25422;48.286;8.484;2023-04-29T09:49:41;94064.03;;;15.24;100.00
39739;BME280;25422;48.286;8.484;2023-04-29T09:52:09;94063.34;;;17.26;100.00
39739;BME280;25422;48.286;8.484;2023-04-29T09:54:39;94053.72;;;17.64;100.00
39739;BME280;25422;48.286;8.484;2023-04-29T09:57:06;94062.94;;;18.49;100.00
39739;BME280;25422;48.286;8.484;2023-04-29T09:59:37;94061.97;;;16.78;100.00
39739;BME280;25422;48.286;8.484;2023-04-29T10:02:12;94056.50;;;16.21;100.00
39739;BME280;25422;48.286;8.484;2023-04-29T10:04:40;94057.13;;;15.23;100.00
39739;BME280;25422;48.286;8.484;2023-04-29T10:07:07;94066.78;;;14.82;100.00
39739;BME280;25422;48.286;8.484;2023-04-29T10:09:36;94058.44;;;14.72;100.00
39739;BME280;25422;48.286;8.484;2023-04-29T10:12:04;94068.59;;;13.98;100.00
39739;BME280;25422;48.286;8.484;2023-04-29T10:14:31;94060.53;;;13.43;100.00
39739;BME280;25422;48.286;8.484;2023-04-29T10:17:10;94057.88;;;13.43;100.00
39739;BME280;25422;48.286;8.484;2023-04-29T10:20:08;94066.09;;;13.83;100.00
39739;BME280;25422;48.286;8.484;2023-04-29T10:22:46;94065.28;;;13.82;100.00
39739;BME280;25422;48.286;8.484;2023-04-29T10:25:14;94069.00;;;14.30;100.00
39739;BME280;25422;48.286;8.484;2023-04-29T10:27:44;94067.59;;;13.99;100.00
39739;BME280;25422;48.286;8.484;2023-04-29T10:30:14;94059.88;;;14.26;100.00
39739;BME280;25422;48.286;8.484;2023-04-29T10:32:41;94055.56;;;14.18;100.00
39739;BME280;25422;48.286;8.484;2023-04-29T10:35:08;94059.66;;;13.92;100.00
39739;BME280;25422;48.286;8.484;2023-04-29T10:37:35;94053.97;;;13.60;100.00
39739;BME280;25422;48.286;8.484;2023-04-29T10:40:11;94046.63;;;13.06;100.00
39739;BME280;25422;48.286;8.484;2023-04-29T10:42:50;94047.03;;;13.03;100.00
39739;BME280;25422;48.286;8.484;2023-04-29T10:45:20;94051.56;;;12.94;100.00
39739;BME280;25422;48.286;8.484;2023-04-29T10:53:06;94053.06;;;12.81;100.00
39739;BME280;25422;48.286;8.484;2023-04-29T10:55:35;94052.28;;;13.46;100.00
39739;BME280;25422;48.286;8.484;2023-04-29T10:58:03;94053.19;;;13.88;100.00
39739;BME280;25422;48.286;8.484;2023-04-29T11:00:31;94050.59;;;14.37;100.00
39739;BME280;25422;48.286;8.484;2023-04-29T11:03:01;94050.28;;;14.60;100.00
39739;BME280;25422;48.286;8.484;2023-04-29T11:05:31;94043.88;;;14.27;100.00
39739;BME280;25422;48.286;8.484;2023-04-29T11:08:13;94039.78;;;14.18;100.00
39739;BME280;25422;48.286;8.484;2023-04-29T11:10:43;94038.25;;;14.37;100.00
39739;BME280;25422;48.286;8.484;2023-04-29T11:13:23;94037.66;;;14.97;100.00
39739;BME280;25422;48.286;8.484;2023-04-29T11:15:51;94038.88;;;15.14;100.00
39739;BME280;25422;48.286;8.484;2023-04-29T11:18:16;94032.72;;;14.67;100.00
39739;BME280;25422;48.286;8.484;2023-04-29T11:23:30;94037.66;;;13.65;100.00
39739;BME280;25422;48.286;8.484;2023-04-29T11:25:56;94037.69;;;14.48;100.00
39739;BME280;25422;48.286;8.484;2023-04-29T11:28:23;94035.22;;;14.40;100.00
39739;BME280;25422;48.286;8.484;2023-04-29T11:30:49;94033.41;;;15.16;100.00
39739;BME280;25422;48.286;8.484;2023-04-29T11:33:15;94028.50;;;16.65;100.00
39739;BME280;25422;48.286;8.484;2023-04-29T11:35:42;94031.47;;;16.30;100.00
39739;BME280;25422;48.286;8.484;2023-04-29T11:38:08;94038.28;;;16.06;100.00
39739;BME280;25422;48.286;8.484;2023-04-29T11:40:33;94049.06;;;15.64;100.00
39739;BME280;25422;48.286;8.484;2023-04-29T11:43:02;94044.16;;;15.95;100.00
39739;BME280;25422;48.286;8.484;2023-04-29T11:45:27;94049.44;;;15.14;100.00
39739;BME280;25422;48.286;8.484;2023-04-29T11:47:52;94051.88;;;15.16;100.00
39739;BME280;25422;48.286;8.484;2023-04-29T11:50:18;94047.41;;;15.10;100.00
39739;BME280;25422;48.286;8.484;2023-04-29T11:52:51;94048.13;;;14.77;100.00
39739;BME280;25422;48.286;8.484;2023-04-29T11:55:18;94055.28;;;14.41;100.00
39739;BME280;25422;48.286;8.484;2023-04-29T11:57:43;94051.25;;;14.52;100.00
39739;BME280;25422;48.286;8.484;2023-04-29T12:00:10;94053.72;;;14.60;100.00
39739;BME280;25422;48.286;8.484;2023-04-29T12:02:38;94062.72;;;14.79;100.00
39739;BME280;25422;48.286;8.484;2023-04-29T12:05:06;94056.41;;;14.67;100.00
39739;BME280;25422;48.286;8.484;2023-04-29T12:07:32;94057.50;;;14.44;100.00
39739;BME280;25422;48.286;8.484;2023-04-29T12:09:58;94064.56;;;14.02;100.00
39739;BME280;25422;48.286;8.484;2023-04-29T12:12:24;94054.41;;;13.92;100.00
39739;BME280;25422;48.286;8.484;2023-04-29T12:14:52;94050.00;;;13.99;100.00
39739;BME280;25422;48.286;8.484;2023-04-29T12:17:18;94059.47;;;14.29;100.00
39739;BME280;25422;48.286;8.484;2023-04-29T12:19:44;94050.25;;;14.53;100.00
39739;BME280;25422;48.286;8.484;2023-04-29T12:22:10;94050.53;;;14.72;100.00
39739;BME280;25422;48.286;8.484;2023-04-29T12:24:37;94030.94;;;14.94;100.00
39739;BME280;25422;48.286;8.484;2023-04-29T12:27:06;94037.06;;;14.95;100.00
39739;BME280;25422;48.286;8.484;2023-04-29T12:29:32;94033.63;;;15.14;100.00
39739;BME280;25422;48.286;8.484;2023-04-29T12:31:58;94028.38;;;15.34;100.00
39739;BME280;25422;48.286;8.484;2023-04-29T12:34:31;94034.22;;;15.30;100.00
39739;BME280;25422;48.286;8.484;2023-04-29T12:36:59;94036.47;;;14.51;100.00
39739;BME280;25422;48.286;8.484;2023-04-29T12:39:26;94041.22;;;13.86;100.00
39739;BME280;25422;48.286;8.484;2023-04-29T12:41:57;94040.72;;;13.40;100.00
39739;BME280;25422;48.286;8.484;2023-04-29T12:44:23;94042.31;;;13.98;100.00
39739;BME280;25422;48.286;8.484;2023-04-29T12:46:49;94040.69;;;14.94;100.00
39739;BME280;25422;48.286;8.484;2023-04-29T12:49:15;94042.72;;;14.98;100.00
39739;BME280;25422;48.286;8.484;2023-04-29T12:51:42;94054.09;;;15.26;100.00
39739;BME280;25422;48.286;8.484;2023-04-29T12:54:08;94048.03;;;15.32;100.00
39739;BME280;25422;48.286;8.484;2023-04-29T12:56:34;94039.50;;;15.57;100.00
39739;BME280;25422;48.286;8.484;2023-04-29T12:59:09;94042.13;;;16.10;99.55
39739;BME280;25422;48.286;8.484;2023-04-29T13:01:37;94035.47;;;16.53;97.01
39739;BME280;25422;48.286;8.484;2023-04-29T13:04:04;94038.13;;;16.46;91.87
39739;BME280;25422;48.286;8.484;2023-04-29T13:06:30;94038.09;;;15.14;100.00
39739;BME280;25422;48.286;8.484;2023-04-29T13:08:56;94038.88;;;15.01;100.00
39739;BME280;25422;48.286;8.484;2023-04-29T13:11:22;94042.31;;;15.01;100.00
39739;BME280;25422;48.286;8.484;2023-04-29T13:13:47;94045.41;;;15.32;100.00